createdAt,value
2023-03-27T00:00:38.492Z,45.4573
2023-03-27T00:01:40.105Z,45.4100
2023-03-27T00:02:41.958Z,45.4312
2023-03-27T00:03:43.525Z,45.5008
2023-03-27T00:04:45.062Z,45.5542
2023-03-27T00:05:46.733Z,45.5464
2023-03-27T00:06:48.357Z,45.6019
2023-03-27T00:07:50.016Z,45.6149
2023-03-27T00:08:51.657Z,45.6621
2023-03-27T00:09:53.327Z,45.7101
2023-03-27T00:10:55.178Z,45.6891
2023-03-27T00:11:56.617Z,45.6950
2023-03-27T00:12:58.255Z,45.7612
2023-03-27T00:13:59.926Z,45.7898
2023-03-27T00:15:01.537Z,45.8280
2023-03-27T00:16:03.254Z,45.8512
2023-03-27T00:17:04.883Z,45.9029
2023-03-27T00:18:06.552Z,45.9189
2023-03-27T00:19:08.150Z,45.9113
2023-03-27T00:20:09.833Z,45.9141
2023-03-27T00:21:11.513Z,45.9494
2023-03-27T00:22:13.129Z,46.0408
2023-03-27T00:23:14.767Z,46.0068
2023-03-27T00:24:16.435Z,46.0586
2023-03-27T00:25:18.063Z,46.0768
2023-03-27T00:26:19.758Z,46.0226
2023-03-27T00:27:21.371Z,46.0391
2023-03-27T00:28:23.030Z,46.1044
2023-03-27T00:29:24.672Z,46.0284
2023-03-27T00:30:26.325Z,46.0772
2023-03-27T00:31:28.079Z,46.0545
2023-03-27T00:32:29.653Z,46.1016
2023-03-27T00:33:31.300Z,46.1255
2023-03-27T00:34:32.924Z,46.1622
2023-03-27T00:35:34.672Z,46.2151
2023-03-27T00:36:36.248Z,46.2051
2023-03-27T00:37:37.897Z,46.2290
2023-03-27T00:38:39.740Z,46.1846
2023-03-27T00:39:41.222Z,46.2034
2023-03-27T00:40:42.855Z,46.2354
2023-03-27T00:41:44.531Z,46.2444
2023-03-27T00:42:46.152Z,46.2584
2023-03-27T00:43:47.816Z,46.2887
2023-03-27T00:44:49.442Z,46.2832
2023-03-27T00:45:51.126Z,46.2741
2023-03-27T00:46:52.803Z,46.3589
2023-03-27T00:47:54.428Z,46.3213
2023-03-27T00:48:56.047Z,46.3538
2023-03-27T00:49:57.728Z,46.3246
2023-03-27T00:50:59.356Z,46.3377
2023-03-27T00:52:01.058Z,46.2941
2023-03-27T00:53:02.657Z,46.3200
2023-03-27T00:54:04.329Z,46.3327
2023-03-27T00:55:05.985Z,46.3305
2023-03-27T00:56:07.650Z,46.3712
2023-03-27T00:57:09.333Z,46.3249
2023-03-27T00:58:10.946Z,46.3445
2023-03-27T00:59:12.606Z,46.3407
2023-03-27T01:00:14.282Z,46.3829
2023-03-27T01:01:15.904Z,46.4281
2023-03-27T01:02:17.596Z,46.3649
2023-03-27T01:03:19.275Z,46.4125
2023-03-27T01:04:20.849Z,46.4563
2023-03-27T01:05:22.487Z,46.4312
2023-03-27T01:06:24.149Z,46.4055
2023-03-27T01:07:25.788Z,46.4541
2023-03-27T01:08:27.451Z,46.4040
2023-03-27T01:09:29.084Z,46.4014
2023-03-27T01:10:30.753Z,46.4310
2023-03-27T01:11:32.386Z,46.4210
2023-03-27T01:12:34.069Z,46.3945
2023-03-27T01:13:35.693Z,46.4146
2023-03-27T01:14:37.362Z,46.4051
2023-03-27T01:15:39.013Z,46.4525
2023-03-27T01:16:40.663Z,46.4503
2023-03-27T01:17:42.358Z,46.4848
2023-03-27T01:18:43.946Z,46.4568
2023-03-27T01:19:45.594Z,46.3965
2023-03-27T01:20:47.345Z,46.4467
2023-03-27T01:21:48.904Z,46.4429
2023-03-27T01:22:50.599Z,46.4277
2023-03-27T01:23:59.354Z,46.4252
2023-03-27T01:24:53.889Z,46.4421
2023-03-27T01:25:55.500Z,46.3981
2023-03-27T01:26:57.168Z,46.4299
2023-03-27T01:27:58.832Z,46.4359
2023-03-27T01:29:00.477Z,46.4342
2023-03-27T01:30:02.109Z,46.4765
2023-03-27T01:31:03.798Z,46.4873
2023-03-27T01:32:05.414Z,46.4328
2023-03-27T01:33:07.174Z,46.4504
2023-03-27T01:34:08.718Z,46.4309
2023-03-27T01:35:10.398Z,46.4313
2023-03-27T01:36:12.042Z,46.5114
2023-03-27T01:37:13.706Z,46.5123
2023-03-27T01:38:15.355Z,46.5978
2023-03-27T01:39:17.013Z,46.5464
2023-03-27T01:40:18.639Z,46.5632
2023-03-27T01:41:20.316Z,46.5518
2023-03-27T01:42:21.948Z,46.4864
2023-03-27T01:43:23.647Z,46.4952
2023-03-27T01:44:25.247Z,46.4746
2023-03-27T01:45:26.919Z,46.5030
2023-03-27T01:46:28.587Z,46.5018
2023-03-27T01:47:30.237Z,46.5068
2023-03-27T01:48:31.929Z,46.5520
2023-03-27T01:49:33.531Z,46.5465
2023-03-27T01:50:35.152Z,46.5078
2023-03-27T01:51:36.839Z,46.5451
2023-03-27T01:52:38.488Z,46.5650
2023-03-27T01:53:40.294Z,46.5711
2023-03-27T01:54:41.782Z,46.5369
2023-03-27T01:55:43.441Z,46.5245
2023-03-27T01:56:45.091Z,46.4930
2023-03-27T01:57:48.961Z,46.5023
2023-03-27T01:58:48.405Z,46.5255
2023-03-27T01:59:50.061Z,46.4806
2023-03-27T02:01:04.110Z,46.5151
2023-03-27T02:01:53.357Z,46.5582
2023-03-27T02:02:55.009Z,46.5993
2023-03-27T02:03:56.701Z,46.5926
2023-03-27T02:04:58.322Z,46.6069
2023-03-27T02:05:59.962Z,46.6261
2023-03-27T02:07:01.597Z,46.6009
2023-03-27T02:08:03.282Z,46.5943
2023-03-27T02:09:04.911Z,46.5926
2023-03-27T02:10:06.581Z,46.5741
2023-03-27T02:11:08.284Z,46.5793
2023-03-27T02:12:09.946Z,46.6107
2023-03-27T02:13:11.584Z,46.6487
2023-03-27T02:14:13.278Z,46.5905
2023-03-27T02:15:23.659Z,46.5949
2023-03-27T02:16:16.641Z,46.5810
2023-03-27T02:17:18.201Z,46.5970
2023-03-27T02:18:19.881Z,46.6356
2023-03-27T02:19:21.537Z,46.5585
2023-03-27T02:20:23.186Z,46.6191
2023-03-27T02:21:24.846Z,46.5816
2023-03-27T02:22:38.137Z,46.5721
2023-03-27T02:23:28.132Z,46.6385
2023-03-27T02:24:29.867Z,46.6966
2023-03-27T02:25:31.457Z,46.6849
2023-03-27T02:26:33.125Z,46.6336
2023-03-27T02:27:34.743Z,46.7265
2023-03-27T02:28:36.415Z,46.6432
2023-03-27T02:29:38.080Z,46.6595
2023-03-27T02:30:39.735Z,46.7071
2023-03-27T02:31:41.430Z,46.7011
2023-03-27T02:32:43.163Z,46.7143
2023-03-27T02:33:44.681Z,46.6875
2023-03-27T02:34:46.338Z,46.7093
2023-03-27T02:35:48.022Z,46.7208
2023-03-27T02:36:49.646Z,46.6928
2023-03-27T02:37:51.314Z,46.7307
2023-03-27T02:38:52.950Z,46.7407
2023-03-27T02:39:54.638Z,46.6927
2023-03-27T02:40:56.396Z,46.7268
2023-03-27T02:41:57.911Z,46.6942
2023-03-27T02:42:59.577Z,46.6880
2023-03-27T02:44:01.233Z,46.6945
2023-03-27T02:45:02.891Z,46.6976
2023-03-27T02:46:04.625Z,46.6883
2023-03-27T02:47:06.181Z,46.7530
2023-03-27T02:48:07.900Z,46.7575
2023-03-27T02:49:09.484Z,46.7253
2023-03-27T02:50:11.227Z,46.7588
2023-03-27T02:51:12.803Z,46.7540
2023-03-27T02:52:14.464Z,46.7959
2023-03-27T02:53:16.104Z,46.8023
2023-03-27T02:54:17.766Z,46.7486
2023-03-27T02:55:19.426Z,46.7270
2023-03-27T02:56:21.097Z,46.7757
2023-03-27T02:57:24.967Z,46.8214
2023-03-27T02:58:24.391Z,46.8097
2023-03-27T02:59:26.016Z,46.8345
2023-03-27T03:00:27.712Z,46.8280
2023-03-27T03:01:29.365Z,46.9152
2023-03-27T03:02:31.065Z,46.8264
2023-03-27T03:03:32.646Z,46.8121
2023-03-27T03:04:34.307Z,46.8406
2023-03-27T03:05:35.961Z,46.8182
2023-03-27T03:06:37.608Z,46.8246
2023-03-27T03:07:39.248Z,46.8396
2023-03-27T03:08:40.919Z,46.8726
2023-03-27T03:09:42.555Z,46.8125
2023-03-27T03:10:44.241Z,46.8754
2023-03-27T03:11:45.849Z,46.9263
2023-03-27T03:12:47.515Z,46.8611
2023-03-27T03:13:49.147Z,46.8235
2023-03-27T03:14:50.831Z,46.8693
2023-03-27T03:15:52.507Z,46.9075
2023-03-27T03:16:54.177Z,46.9052
2023-03-27T03:17:55.780Z,46.9338
2023-03-27T03:18:57.451Z,46.8986
2023-03-27T03:19:59.069Z,46.9525
2023-03-27T03:21:00.782Z,46.9006
2023-03-27T03:22:02.386Z,46.9409
2023-03-27T03:23:04.056Z,46.9124
2023-03-27T03:24:05.696Z,46.8862
2023-03-27T03:25:07.370Z,46.9319
2023-03-27T03:26:09.022Z,47.0000
2023-03-27T03:27:10.693Z,46.9541
2023-03-27T03:28:12.303Z,46.9624
2023-03-27T03:29:13.972Z,46.9860
2023-03-27T03:30:16.985Z,47.0475
2023-03-27T03:31:17.362Z,46.9583
2023-03-27T03:32:18.916Z,47.0183
2023-03-27T03:33:20.582Z,46.9869
2023-03-27T03:34:22.203Z,47.0020
2023-03-27T03:35:23.898Z,46.9606
2023-03-27T03:36:25.526Z,47.0434
2023-03-27T03:37:27.178Z,47.0345
2023-03-27T03:38:28.815Z,47.0713
2023-03-27T03:39:30.490Z,47.0138
2023-03-27T03:40:32.112Z,47.0247
2023-03-27T03:41:33.804Z,47.0344
2023-03-27T03:42:35.422Z,47.1168
2023-03-27T03:43:37.086Z,47.1023
2023-03-27T03:44:38.741Z,47.0579
2023-03-27T03:45:40.395Z,47.0810
2023-03-27T03:46:42.041Z,47.0668
2023-03-27T03:47:43.725Z,47.0164
2023-03-27T03:48:45.317Z,46.9915
2023-03-27T03:49:46.993Z,47.0259
2023-03-27T03:50:48.623Z,47.0290
2023-03-27T03:52:03.775Z,47.0692
2023-03-27T03:52:51.921Z,47.0261
2023-03-27T03:53:53.586Z,47.0507
2023-03-27T03:54:55.239Z,47.0472
2023-03-27T03:55:56.883Z,47.0937
2023-03-27T03:56:58.557Z,47.1261
2023-03-27T03:58:00.192Z,47.1378
2023-03-27T03:59:01.846Z,47.1640
2023-03-27T04:00:03.504Z,47.1621
2023-03-27T04:01:05.126Z,47.1494
2023-03-27T04:02:06.837Z,47.0929
2023-03-27T04:03:08.640Z,47.0923
2023-03-27T04:04:10.104Z,47.1376
2023-03-27T04:05:11.745Z,47.1120
2023-03-27T04:06:13.419Z,47.0655
2023-03-27T04:07:15.060Z,47.1249
2023-03-27T04:08:16.715Z,47.1612
2023-03-27T04:09:18.341Z,47.1763
2023-03-27T04:10:20.048Z,47.1790
2023-03-27T04:11:21.660Z,47.1887
2023-03-27T04:12:23.353Z,47.1813
2023-03-27T04:13:24.987Z,47.1701
2023-03-27T04:14:26.622Z,47.1655
2023-03-27T04:15:28.266Z,47.1766
2023-03-27T04:16:29.994Z,47.1881
2023-03-27T04:17:31.622Z,47.1539
2023-03-27T04:18:33.367Z,47.1528
2023-03-27T04:19:34.888Z,47.1183
2023-03-27T04:20:36.537Z,47.1799
2023-03-27T04:21:38.158Z,47.1711
2023-03-27T04:22:39.847Z,47.2589
2023-03-27T04:23:41.463Z,47.6869
2023-03-27T04:24:43.140Z,48.1016
2023-03-27T04:25:44.810Z,47.9845
2023-03-27T04:26:46.441Z,47.6062
2023-03-27T04:27:48.088Z,47.9426
2023-03-27T04:28:49.730Z,49.1686
2023-03-27T04:29:51.369Z,49.0857
2023-03-27T04:30:53.038Z,48.5964
2023-03-27T04:31:54.681Z,48.7885
2023-03-27T04:32:56.389Z,49.1378
2023-03-27T04:33:57.977Z,48.6117
2023-03-27T04:34:59.651Z,48.5943
2023-03-27T04:36:06.360Z,49.1929
2023-03-27T04:37:02.958Z,45.2379
2023-03-27T04:38:04.616Z,43.6458
2023-03-27T04:39:06.260Z,44.6567
2023-03-27T04:40:07.892Z,46.3530
2023-03-27T04:41:09.545Z,45.4733
2023-03-27T04:42:11.178Z,45.4755
2023-03-27T04:43:12.887Z,47.2072
2023-03-27T04:44:14.493Z,47.0564
2023-03-27T04:45:16.190Z,47.7657
2023-03-27T04:46:17.825Z,47.6762
2023-03-27T04:47:19.476Z,48.7329
2023-03-27T04:48:21.140Z,49.4431
2023-03-27T04:49:22.780Z,48.8086
2023-03-27T04:50:24.403Z,48.5216
2023-03-27T04:51:26.089Z,48.7663
2023-03-27T04:52:27.725Z,47.6864
2023-03-27T04:53:29.556Z,46.0877
2023-03-27T04:54:31.055Z,46.6336
2023-03-27T04:55:32.680Z,46.9039
2023-03-27T04:56:34.363Z,47.3167
2023-03-27T04:57:35.987Z,45.8203
2023-03-27T04:58:37.945Z,44.9569
2023-03-27T04:59:39.301Z,45.0896
2023-03-27T05:00:40.987Z,45.6665
2023-03-27T05:01:42.606Z,43.7680
2023-03-27T05:02:44.270Z,43.0366
2023-03-27T05:03:45.976Z,44.0195
2023-03-27T05:04:47.551Z,43.8345
2023-03-27T05:05:49.190Z,43.2424
2023-03-27T05:06:50.872Z,43.3482
2023-03-27T05:07:52.580Z,43.5876
2023-03-27T05:08:54.177Z,43.7962
2023-03-27T05:09:55.777Z,43.9422
2023-03-27T05:10:57.712Z,44.1787
2023-03-27T05:11:59.098Z,44.3995
2023-03-27T05:13:00.769Z,44.7844
2023-03-27T05:14:02.426Z,45.1556
2023-03-27T05:15:04.089Z,46.1340
2023-03-27T05:16:05.720Z,46.2961
2023-03-27T05:17:07.374Z,46.1595
2023-03-27T05:18:09.322Z,46.1890
2023-03-27T05:19:10.767Z,46.5031
2023-03-27T05:20:12.319Z,46.3713
2023-03-27T05:21:13.974Z,45.8702
2023-03-27T05:22:15.626Z,45.9766
2023-03-27T05:23:17.288Z,46.0511
2023-03-27T05:24:18.931Z,46.6815
2023-03-27T05:25:20.586Z,46.8007
2023-03-27T05:26:22.215Z,47.5803
2023-03-27T05:27:23.923Z,48.0880
2023-03-27T05:28:25.525Z,48.1338
2023-03-27T05:29:27.232Z,47.8964
2023-03-27T05:30:28.927Z,47.7092
2023-03-27T05:31:30.573Z,47.9778
2023-03-27T05:32:32.170Z,47.8844
2023-03-27T05:33:33.785Z,47.6498
2023-03-27T05:34:35.496Z,47.7017
2023-03-27T05:35:37.125Z,47.8269
2023-03-27T05:36:38.773Z,49.1490
2023-03-27T05:37:40.405Z,48.6951
2023-03-27T05:38:42.064Z,48.9070
2023-03-27T05:39:43.732Z,49.1828
2023-03-27T05:40:45.374Z,49.3706
2023-03-27T05:41:47.005Z,48.6700
2023-03-27T05:42:48.674Z,48.3170
2023-03-27T05:43:51.241Z,48.2706
2023-03-27T05:44:51.996Z,48.3317
2023-03-27T05:45:53.626Z,48.1955
2023-03-27T05:46:55.291Z,48.0851
2023-03-27T05:47:56.991Z,47.9915
2023-03-27T05:48:58.592Z,48.2992
2023-03-27T05:50:00.249Z,48.1291
2023-03-27T05:51:01.903Z,48.2567
2023-03-27T05:52:03.510Z,48.4502
2023-03-27T05:53:05.200Z,48.3285
2023-03-27T05:54:06.809Z,48.3744
2023-03-27T05:55:08.523Z,48.5927
2023-03-27T05:56:10.116Z,48.3929
2023-03-27T05:57:11.914Z,48.6919
2023-03-27T05:58:13.462Z,48.2978
2023-03-27T05:59:15.077Z,48.7259
2023-03-27T06:00:16.762Z,48.6533
2023-03-27T06:01:18.388Z,48.5982
2023-03-27T06:02:21.517Z,48.8575
2023-03-27T06:03:21.876Z,48.8397
2023-03-27T06:04:23.358Z,48.6285
2023-03-27T06:05:25.023Z,48.6746
2023-03-27T06:06:26.637Z,48.6694
2023-03-27T06:07:28.305Z,48.9238
2023-03-27T06:08:29.933Z,48.9753
2023-03-27T06:09:31.583Z,48.8254
2023-03-27T06:10:33.250Z,48.7994
2023-03-27T06:11:34.889Z,48.9478
2023-03-27T06:12:36.526Z,48.7475
2023-03-27T06:13:38.260Z,48.9220
2023-03-27T06:14:39.906Z,48.9119
2023-03-27T06:15:41.635Z,48.8729
2023-03-27T06:16:43.201Z,48.8667
2023-03-27T06:17:44.894Z,48.8934
2023-03-27T06:18:46.498Z,48.7993
2023-03-27T06:19:48.184Z,48.8384
2023-03-27T06:20:49.815Z,48.8667
2023-03-27T06:21:51.460Z,48.8740
2023-03-27T06:22:53.104Z,48.8550
2023-03-27T06:23:54.763Z,48.9269
2023-03-27T06:24:56.389Z,49.0462
2023-03-27T06:25:58.378Z,49.0696
2023-03-27T06:26:59.691Z,49.0566
2023-03-27T06:28:01.364Z,48.9217
2023-03-27T06:29:08.142Z,48.9379
2023-03-27T06:30:04.676Z,48.9469
2023-03-27T06:31:06.355Z,48.9920
2023-03-27T06:32:07.981Z,49.0346
2023-03-27T06:33:09.621Z,49.0807
2023-03-27T06:34:11.284Z,49.0670
2023-03-27T06:35:12.896Z,48.9841
2023-03-27T06:36:14.625Z,48.9939
2023-03-27T06:37:16.181Z,48.9799
2023-03-27T06:38:17.862Z,48.9900
2023-03-27T06:39:19.479Z,48.9298
2023-03-27T06:40:21.139Z,48.9453
2023-03-27T06:41:22.802Z,48.9282
2023-03-27T06:42:24.445Z,48.9100
2023-03-27T06:43:26.075Z,48.8786
2023-03-27T06:44:27.738Z,48.8432
2023-03-27T06:45:29.393Z,48.8213
2023-03-27T06:46:42.688Z,48.8269
2023-03-27T06:47:36.382Z,48.8403
2023-03-27T06:48:34.366Z,48.8596
2023-03-27T06:49:35.975Z,48.8598
2023-03-27T06:50:37.629Z,48.9564
2023-03-27T06:51:39.281Z,48.8988
2023-03-27T06:52:40.928Z,48.8951
2023-03-27T06:53:42.558Z,48.8355
2023-03-27T06:54:44.216Z,48.8562
2023-03-27T06:55:45.868Z,48.9473
2023-03-27T06:56:47.610Z,48.9599
2023-03-27T06:57:49.166Z,48.8941
2023-03-27T06:58:50.836Z,48.9192
2023-03-27T06:59:52.488Z,48.9324
2023-03-27T07:00:54.129Z,48.8479
2023-03-27T07:01:55.830Z,48.7964
2023-03-27T07:02:57.420Z,48.8590
2023-03-27T07:03:59.065Z,48.8326
2023-03-27T07:05:04.649Z,48.8512
2023-03-27T07:06:02.556Z,48.8055
2023-03-27T07:07:04.049Z,48.8698
2023-03-27T07:08:18.997Z,48.8273
2023-03-27T07:09:07.318Z,48.8227
2023-03-27T07:10:08.962Z,48.8191
2023-03-27T07:11:12.266Z,48.8240
2023-03-27T07:12:12.278Z,48.8992
2023-03-27T07:13:13.919Z,48.9014
2023-03-27T07:14:15.589Z,48.7848
2023-03-27T07:15:17.295Z,48.8697
2023-03-27T07:16:18.892Z,48.8189
2023-03-27T07:17:20.532Z,48.8669
2023-03-27T07:18:22.216Z,48.8649
2023-03-27T07:19:23.822Z,48.8561
2023-03-27T07:20:25.473Z,48.8330
2023-03-27T07:21:27.137Z,48.7842
2023-03-27T07:22:28.799Z,48.8563
2023-03-27T07:23:30.435Z,48.9015
2023-03-27T07:24:32.060Z,48.7949
2023-03-27T07:25:33.744Z,48.7716
2023-03-27T07:26:35.354Z,48.8752
2023-03-27T07:27:37.063Z,48.8872
2023-03-27T07:28:38.729Z,48.8919
2023-03-27T07:29:40.337Z,48.8306
2023-03-27T07:30:41.983Z,48.7680
2023-03-27T07:31:57.525Z,48.7838
2023-03-27T07:32:45.408Z,48.7389
2023-03-27T07:33:47.068Z,48.7795
2023-03-27T07:34:48.579Z,48.7944
2023-03-27T07:35:50.256Z,48.8002
2023-03-27T07:36:51.894Z,48.8283
2023-03-27T07:37:53.579Z,48.8163
2023-03-27T07:38:55.184Z,48.7632
2023-03-27T07:39:56.847Z,48.7946
2023-03-27T07:40:58.504Z,48.7442
2023-03-27T07:42:00.164Z,48.7623
2023-03-27T07:43:01.834Z,48.7802
2023-03-27T07:44:03.464Z,48.8012
2023-03-27T07:45:05.090Z,48.8198
2023-03-27T07:46:06.803Z,48.8299
2023-03-27T07:47:08.397Z,48.7105
2023-03-27T07:48:10.087Z,48.7154
2023-03-27T07:49:11.685Z,48.6972
2023-03-27T07:50:13.380Z,48.6672
2023-03-27T07:51:14.982Z,48.7337
2023-03-27T07:52:16.738Z,48.7506
2023-03-27T07:53:32.806Z,48.7263
2023-03-27T07:54:19.945Z,48.7423
2023-03-27T07:55:21.582Z,48.7229
2023-03-27T07:56:23.276Z,48.7253
2023-03-27T07:57:25.041Z,48.7380
2023-03-27T07:58:26.857Z,48.8523
2023-03-27T07:59:28.197Z,48.7292
2023-03-27T08:00:29.980Z,48.7158
2023-03-27T08:01:31.480Z,48.7598
2023-03-27T08:02:33.188Z,48.7025
2023-03-27T08:03:34.922Z,48.6966
2023-03-27T08:04:36.584Z,48.7106
2023-03-27T08:05:38.080Z,48.7036
2023-03-27T08:06:39.751Z,48.7421
2023-03-27T08:07:41.389Z,48.7226
2023-03-27T08:08:43.092Z,48.7018
2023-03-27T08:09:44.697Z,48.7903
2023-03-27T08:10:46.361Z,48.7932
2023-03-27T08:11:48.010Z,48.7720
2023-03-27T08:12:49.668Z,48.7256
2023-03-27T08:13:51.330Z,48.7567
2023-03-27T08:14:52.968Z,48.7311
2023-03-27T08:15:54.750Z,48.6664
2023-03-27T08:17:08.648Z,48.7358
2023-03-27T08:17:57.937Z,48.8672
2023-03-27T08:18:59.640Z,48.8329
2023-03-27T08:20:01.226Z,48.7424
2023-03-27T08:21:02.957Z,48.7526
2023-03-27T08:22:04.501Z,48.7335
2023-03-27T08:23:06.191Z,48.8331
2023-03-27T08:24:07.833Z,48.7649
2023-03-27T08:25:09.502Z,48.7796
2023-03-27T08:26:11.101Z,48.8029
2023-03-27T08:27:12.798Z,48.8892
2023-03-27T08:28:14.433Z,48.7328
2023-03-27T08:29:16.138Z,48.9086
2023-03-27T08:30:17.794Z,48.8864
2023-03-27T08:31:19.487Z,48.9236
2023-03-27T08:32:21.035Z,48.8699
2023-03-27T08:33:22.739Z,48.8705
2023-03-27T08:34:24.397Z,48.7950
2023-03-27T08:35:26.026Z,48.7810
2023-03-27T08:36:27.632Z,48.8021
2023-03-27T08:37:29.265Z,48.8459
2023-03-27T08:38:30.964Z,48.8224
2023-03-27T08:39:32.630Z,48.8027
2023-03-27T08:40:34.219Z,48.9684
2023-03-27T08:41:35.882Z,48.9478
2023-03-27T08:42:37.556Z,48.8500
2023-03-27T08:43:39.142Z,49.0031
2023-03-27T08:44:40.873Z,48.9424
2023-03-27T08:45:42.470Z,48.8767
2023-03-27T08:46:44.136Z,48.8963
2023-03-27T08:48:48.556Z,48.8598
2023-03-27T08:48:48.556Z,48.8443
2023-03-27T08:49:50.144Z,48.7868
2023-03-27T08:50:51.817Z,48.7604
2023-03-27T08:51:53.406Z,48.8716
2023-03-27T08:52:55.059Z,48.9326
2023-03-27T08:53:56.719Z,48.8883
2023-03-27T08:54:58.502Z,48.8734
2023-03-27T08:56:00.003Z,49.0759
2023-03-27T08:57:01.759Z,48.8712
2023-03-27T08:58:03.334Z,48.8712
2023-03-27T08:59:04.992Z,48.8852
2023-03-27T09:00:06.650Z,48.8578
2023-03-27T09:01:08.301Z,48.8390
2023-03-27T09:02:09.989Z,48.8010
2023-03-27T09:03:11.721Z,48.8222
2023-03-27T09:04:13.218Z,48.8205
2023-03-27T09:05:14.931Z,48.8176
2023-03-27T09:06:16.567Z,48.8622
2023-03-27T09:07:18.188Z,48.8121
2023-03-27T09:08:19.804Z,48.7973
2023-03-27T09:09:21.461Z,48.8126
2023-03-27T09:10:23.199Z,48.8082
2023-03-27T09:11:24.804Z,48.7888
2023-03-27T09:12:26.430Z,48.7831
2023-03-27T09:13:28.027Z,48.8853
2023-03-27T09:14:29.686Z,48.9365
2023-03-27T09:15:31.384Z,48.8960
2023-03-27T09:16:33.122Z,48.8472
2023-03-27T09:17:34.683Z,48.8422
2023-03-27T09:18:36.316Z,48.9142
2023-03-27T09:19:37.947Z,48.9396
2023-03-27T09:20:39.662Z,48.9162
2023-03-27T09:21:41.229Z,49.0012
2023-03-27T09:22:42.904Z,48.9293
2023-03-27T09:23:44.523Z,48.9205
2023-03-27T09:24:46.236Z,48.8137
2023-03-27T09:25:47.926Z,48.7830
2023-03-27T09:27:01.072Z,48.8150
2023-03-27T09:27:51.132Z,48.8728
2023-03-27T09:28:52.806Z,48.8951
2023-03-27T09:30:05.960Z,48.8647
2023-03-27T09:30:56.226Z,48.8562
2023-03-27T09:31:57.744Z,48.8731
2023-03-27T09:32:59.448Z,48.9418
2023-03-27T09:34:01.001Z,48.8848
2023-03-27T09:35:02.752Z,48.8303
2023-03-27T09:36:04.460Z,48.8055
2023-03-27T09:37:06.056Z,48.8188
2023-03-27T09:38:07.640Z,48.8588
2023-03-27T09:39:09.314Z,48.8655
2023-03-27T09:40:10.954Z,48.9069
2023-03-27T09:41:12.634Z,48.8256
2023-03-27T09:42:14.238Z,48.8804
2023-03-27T09:43:15.920Z,48.8748
2023-03-27T09:44:17.596Z,48.8366
2023-03-27T09:45:19.301Z,48.8445
2023-03-27T09:46:20.933Z,48.9179
2023-03-27T09:47:22.520Z,48.9043
2023-03-27T09:48:24.185Z,48.9827
2023-03-27T09:49:25.814Z,49.0431
2023-03-27T09:50:27.945Z,48.8426
2023-03-27T09:51:29.269Z,48.8471
2023-03-27T09:52:30.711Z,48.8211
2023-03-27T09:53:32.434Z,48.8438
2023-03-27T09:54:34.058Z,48.8931
2023-03-27T09:55:35.717Z,48.8191
2023-03-27T09:56:37.392Z,48.8575
2023-03-27T09:57:39.077Z,48.8733
2023-03-27T09:58:40.678Z,48.8808
2023-03-27T09:59:42.307Z,48.9120
2023-03-27T10:00:44.031Z,49.0398
2023-03-27T10:01:45.632Z,48.9054
2023-03-27T10:02:47.297Z,48.8834
2023-03-27T10:03:49.108Z,48.9049
2023-03-27T10:04:50.548Z,48.9612
2023-03-27T10:05:52.216Z,48.8895
2023-03-27T10:06:53.852Z,48.8630
2023-03-27T10:07:55.522Z,48.9102
2023-03-27T10:08:57.165Z,48.8880
2023-03-27T10:09:58.836Z,49.0022
2023-03-27T10:11:00.485Z,48.9606
2023-03-27T10:12:02.190Z,48.8909
2023-03-27T10:13:03.767Z,48.9284
2023-03-27T10:14:05.454Z,48.9810
2023-03-27T10:15:07.112Z,48.9138
2023-03-27T10:16:08.837Z,48.8908
2023-03-27T10:17:10.450Z,48.9137
2023-03-27T10:18:12.199Z,48.8744
2023-03-27T10:19:13.855Z,48.8667
2023-03-27T10:20:15.491Z,48.8550
2023-03-27T10:21:17.100Z,48.8364
2023-03-27T10:22:18.766Z,48.8539
2023-03-27T10:23:20.359Z,48.8865
2023-03-27T10:24:22.005Z,48.8278
2023-03-27T10:25:23.678Z,48.8554
2023-03-27T10:26:25.343Z,48.9065
2023-03-27T10:27:26.976Z,48.8852
2023-03-27T10:28:28.609Z,48.8684
2023-03-27T10:29:30.262Z,48.8198
2023-03-27T10:30:31.912Z,48.8020
2023-03-27T10:31:33.588Z,48.8091
2023-03-27T10:32:35.268Z,48.8456
2023-03-27T10:33:36.885Z,48.8832
2023-03-27T10:34:38.517Z,48.8658
2023-03-27T10:35:40.179Z,48.7939
2023-03-27T10:36:41.842Z,48.8334
2023-03-27T10:37:49.773Z,48.8251
2023-03-27T10:38:45.132Z,48.8140
2023-03-27T10:39:46.756Z,48.8097
2023-03-27T10:40:48.426Z,48.8046
2023-03-27T10:41:50.067Z,48.8907
2023-03-27T10:42:51.782Z,48.9760
2023-03-27T10:43:53.360Z,48.8690
2023-03-27T10:44:55.030Z,48.7640
2023-03-27T10:45:56.764Z,48.8604
2023-03-27T10:46:58.347Z,48.8889
2023-03-27T10:48:00.038Z,48.8501
2023-03-27T10:49:01.635Z,48.8267
2023-03-27T10:50:03.267Z,48.8348
2023-03-27T10:51:04.945Z,48.7996
2023-03-27T10:52:06.560Z,48.8379
2023-03-27T10:53:08.336Z,48.8571
2023-03-27T10:54:09.902Z,48.8727
2023-03-27T10:55:11.537Z,48.8380
2023-03-27T10:56:13.176Z,48.8691
2023-03-27T10:57:14.868Z,48.9720
2023-03-27T10:58:16.481Z,49.0090
2023-03-27T10:59:21.509Z,48.9808
2023-03-27T11:00:19.763Z,49.0318
2023-03-27T11:01:21.505Z,49.0370
2023-03-27T11:02:23.115Z,49.0217
2023-03-27T11:03:24.807Z,48.9561
2023-03-27T11:04:26.378Z,49.0677
2023-03-27T11:05:28.092Z,48.9910
2023-03-27T11:06:29.698Z,48.9491
2023-03-27T11:07:31.369Z,48.9643
2023-03-27T11:08:33.062Z,48.9088
2023-03-27T11:09:34.708Z,48.9141
2023-03-27T11:10:36.320Z,48.9569
2023-03-27T11:11:38.031Z,48.8839
2023-03-27T11:12:39.608Z,48.9068
2023-03-27T11:13:41.279Z,48.9259
2023-03-27T11:14:42.917Z,48.9051
2023-03-27T11:15:44.608Z,48.9524
2023-03-27T11:16:46.242Z,48.9060
2023-03-27T11:17:47.905Z,48.9721
2023-03-27T11:18:49.573Z,48.9422
2023-03-27T11:19:51.176Z,48.8717
2023-03-27T11:20:52.789Z,48.8949
2023-03-27T11:21:54.485Z,48.9239
2023-03-27T11:22:56.138Z,48.9004
2023-03-27T11:23:57.926Z,48.8949
2023-03-27T11:24:59.429Z,48.9895
2023-03-27T11:26:01.075Z,48.9093
2023-03-27T11:27:02.754Z,48.9336
2023-03-27T11:28:04.444Z,48.9815
2023-03-27T11:29:06.059Z,49.0930
2023-03-27T11:30:07.705Z,49.0633
2023-03-27T11:31:12.112Z,49.0051
2023-03-27T11:32:10.995Z,49.0067
2023-03-27T11:33:12.608Z,49.0449
2023-03-27T11:34:14.345Z,49.0261
2023-03-27T11:35:15.923Z,48.9093
2023-03-27T11:36:17.619Z,49.0089
2023-03-27T11:37:19.217Z,49.0090
2023-03-27T11:38:20.911Z,49.0263
2023-03-27T11:39:22.626Z,49.1165
2023-03-27T11:40:24.232Z,49.0169
2023-03-27T11:41:25.847Z,49.0965
2023-03-27T11:42:27.604Z,49.0224
2023-03-27T11:43:29.135Z,48.9668
2023-03-27T11:44:30.847Z,49.0295
2023-03-27T11:45:32.452Z,49.0978
2023-03-27T11:46:34.168Z,49.0558
2023-03-27T11:47:35.759Z,49.1101
2023-03-27T11:48:37.394Z,49.1442
2023-03-27T11:49:39.141Z,49.0190
2023-03-27T11:50:40.750Z,48.9738
2023-03-27T11:51:42.403Z,48.9684
2023-03-27T11:52:43.997Z,49.0160
2023-03-27T11:53:45.684Z,49.0599
2023-03-27T11:54:47.379Z,49.0253
2023-03-27T11:55:49.008Z,49.0201
2023-03-27T11:56:50.643Z,49.0317
2023-03-27T11:57:52.278Z,49.0520
2023-03-27T11:58:53.917Z,48.9371
2023-03-27T11:59:55.616Z,48.9534
2023-03-27T12:00:57.393Z,48.9672
2023-03-27T12:01:58.936Z,48.9392
2023-03-27T12:03:00.574Z,48.9678
2023-03-27T12:04:02.320Z,49.0207
2023-03-27T12:05:03.866Z,49.0923
2023-03-27T12:06:05.556Z,49.0644
2023-03-27T12:07:09.836Z,49.0732
2023-03-27T12:08:08.790Z,49.0152
2023-03-27T12:09:10.428Z,49.0191
2023-03-27T12:10:12.140Z,49.1562
2023-03-27T12:11:13.716Z,48.9769
2023-03-27T12:12:15.391Z,49.0811
2023-03-27T12:13:17.021Z,48.9834
2023-03-27T12:14:19.140Z,48.9871
2023-03-27T12:15:20.421Z,49.0659
2023-03-27T12:16:22.092Z,48.9733
2023-03-27T12:17:23.725Z,49.0109
2023-03-27T12:18:35.277Z,49.0644
2023-03-27T12:19:29.680Z,49.0018
2023-03-27T12:20:28.745Z,49.0325
2023-03-27T12:21:30.330Z,49.0136
2023-03-27T12:22:31.921Z,49.1056
2023-03-27T12:23:33.522Z,49.1045
2023-03-27T12:24:35.196Z,49.1805
2023-03-27T12:25:36.931Z,49.0852